createdAt,value
2017-10-21T00:00:03.964Z,27.20
2017-10-21T00:02:31.533Z,23.27
2017-10-21T00:04:59.007Z,24.03
2017-10-21T00:07:26.657Z,24.13
2017-10-21T00:09:54.164Z,22.73
2017-10-21T00:12:21.633Z,31.70
2017-10-21T00:14:49.160Z,27.37
2017-10-21T00:17:16.752Z,24.00
2017-10-21T00:19:44.317Z,26.77
2017-10-21T00:22:11.859Z,28.80
2017-10-21T00:24:39.330Z,25.60
2017-10-21T00:27:06.891Z,25.90
2017-10-21T00:29:34.553Z,31.63
2017-10-21T00:32:02.011Z,30.70
2017-10-21T00:34:29.469Z,28.70
2017-10-21T00:36:57.055Z,25.50
2017-10-21T00:39:24.554Z,25.97
2017-10-21T00:41:52.037Z,27.47
2017-10-21T00:44:19.505Z,26.05
2017-10-21T00:46:47.048Z,27.37
2017-10-21T00:49:14.498Z,29.90
2017-10-21T00:51:41.988Z,29.40
2017-10-21T00:54:09.479Z,30.30
2017-10-21T00:56:36.992Z,31.80
2017-10-21T00:59:04.469Z,33.70
2017-10-21T01:01:31.983Z,29.07
2017-10-21T01:03:59.460Z,32.97
2017-10-21T01:06:26.963Z,27.47
2017-10-21T01:08:54.422Z,25.97
2017-10-21T01:11:21.955Z,25.97
2017-10-21T01:13:49.501Z,34.13
2017-10-21T01:16:17.019Z,31.70
2017-10-21T01:18:44.529Z,27.40
2017-10-21T01:21:12.084Z,28.63
2017-10-21T01:23:39.589Z,28.50
2017-10-21T01:26:07.145Z,36.60
2017-10-21T01:28:34.722Z,26.63
2017-10-21T01:31:02.236Z,27.47
2017-10-21T01:33:29.678Z,28.00
2017-10-21T01:35:57.186Z,33.72
2017-10-21T01:38:24.711Z,33.80
2017-10-21T01:40:52.273Z,25.33
2017-10-21T01:43:19.778Z,27.43
2017-10-21T01:45:47.214Z,24.37
2017-10-21T01:48:14.774Z,35.50
2017-10-21T01:50:42.316Z,27.03
2017-10-21T01:53:09.772Z,28.27
2017-10-21T01:55:37.249Z,27.40
2017-10-21T01:58:05.400Z,34.60
2017-10-21T02:00:32.930Z,34.23
2017-10-21T02:03:00.416Z,33.23
2017-10-21T02:05:28.288Z,27.13
2017-10-21T02:07:55.813Z,35.13
2017-10-21T02:10:23.452Z,29.70
2017-10-21T02:12:51.009Z,29.47
2017-10-21T02:15:18.517Z,29.48
2017-10-21T02:17:46.110Z,36.87
2017-10-21T02:20:13.614Z,29.70
2017-10-21T02:22:41.075Z,31.15
2017-10-21T02:25:08.584Z,35.33
2017-10-21T02:27:36.153Z,33.80
2017-10-21T02:30:03.621Z,33.73
2017-10-21T02:32:31.132Z,31.23
2017-10-21T02:34:59.602Z,30.90
2017-10-21T02:37:27.069Z,33.77
2017-10-21T02:39:54.630Z,33.38
2017-10-21T02:42:22.201Z,29.57
2017-10-21T02:44:49.689Z,33.13
2017-10-21T02:47:17.213Z,32.87
2017-10-21T02:49:44.753Z,31.87
2017-10-21T02:52:12.315Z,31.90
2017-10-21T02:54:39.775Z,29.00
2017-10-21T02:57:07.373Z,34.27
2017-10-21T02:59:34.879Z,31.97
2017-10-21T03:02:02.391Z,27.80
2017-10-21T03:04:29.969Z,32.80
2017-10-21T03:06:57.476Z,28.80
2017-10-21T03:09:24.999Z,30.70
2017-10-21T03:11:52.595Z,30.67
2017-10-21T03:14:20.160Z,30.25
2017-10-21T03:16:47.647Z,29.27
2017-10-21T03:19:15.166Z,27.77
2017-10-21T03:21:42.636Z,26.00
2017-10-21T03:24:10.203Z,30.75
2017-10-21T03:26:37.745Z,35.97
2017-10-21T03:29:05.951Z,32.80
2017-10-21T03:31:33.490Z,32.60
2017-10-21T03:34:00.998Z,27.90
2017-10-21T03:36:28.449Z,28.40
2017-10-21T03:38:55.935Z,29.97
2017-10-21T03:41:23.427Z,30.58
2017-10-21T03:43:50.939Z,31.87
2017-10-21T03:46:18.413Z,27.92
2017-10-21T03:48:45.913Z,34.23
2017-10-21T03:51:16.669Z,37.97
2017-10-21T03:53:44.307Z,33.35
2017-10-21T03:56:12.848Z,33.60
2017-10-21T03:58:40.684Z,32.37
2017-10-21T04:01:08.184Z,34.27
2017-10-21T04:03:36.450Z,35.30
2017-10-21T04:06:04.810Z,31.67
2017-10-21T04:08:33.073Z,29.90
2017-10-21T04:11:01.044Z,38.60
2017-10-21T04:13:29.390Z,31.03
2017-10-21T04:15:57.093Z,34.73
2017-10-21T04:18:24.686Z,32.60
2017-10-21T04:20:52.427Z,36.27
2017-10-21T04:23:20.034Z,37.90
2017-10-21T04:25:47.761Z,29.98
2017-10-21T04:28:16.453Z,28.03
2017-10-21T04:30:43.929Z,29.50
2017-10-21T04:33:11.908Z,42.03
2017-10-21T04:35:39.398Z,33.47
2017-10-21T04:38:06.963Z,33.03
2017-10-21T04:40:35.192Z,30.70
2017-10-21T04:43:02.736Z,33.33
2017-10-21T04:45:32.274Z,31.67
2017-10-21T04:47:59.789Z,28.20
2017-10-21T04:50:27.338Z,31.37
2017-10-21T04:52:54.847Z,28.10
2017-10-21T04:55:23.879Z,35.83
2017-10-21T04:57:52.249Z,31.20
2017-10-21T05:00:19.711Z,29.57
2017-10-21T05:02:47.736Z,34.87
2017-10-21T05:05:15.192Z,28.67
2017-10-21T05:07:46.228Z,33.70
2017-10-21T05:10:13.730Z,33.97
2017-10-21T05:12:41.188Z,37.27
2017-10-21T05:15:08.651Z,32.73
2017-10-21T05:17:36.253Z,34.33
2017-10-21T05:20:03.801Z,30.37
2017-10-21T05:22:42.424Z,37.27
2017-10-21T05:25:10.259Z,37.17
2017-10-21T05:27:40.794Z,40.03
2017-10-21T05:30:09.483Z,35.60
2017-10-21T05:32:36.963Z,37.90
2017-10-21T05:35:04.498Z,46.60
2017-10-21T05:37:33.209Z,36.37
2017-10-21T05:40:00.735Z,42.00
2017-10-21T05:42:28.616Z,38.72
2017-10-21T05:44:56.198Z,34.10
2017-10-21T05:47:25.494Z,37.93
2017-10-21T05:49:53.023Z,39.97
2017-10-21T05:52:20.509Z,40.78
2017-10-21T05:54:47.982Z,36.42
2017-10-21T05:57:15.528Z,36.60
2017-10-21T05:59:43.025Z,44.97
2017-10-21T06:02:10.608Z,43.90
2017-10-21T06:04:38.197Z,61.23
2017-10-21T06:07:05.744Z,45.53
2017-10-21T06:09:33.186Z,44.30
2017-10-21T06:12:00.680Z,45.43
2017-10-21T06:14:28.860Z,44.97
2017-10-21T06:16:56.510Z,38.57
2017-10-21T06:19:23.950Z,41.43
2017-10-21T06:21:51.491Z,33.90
2017-10-21T06:24:19.042Z,40.85
2017-10-21T06:26:46.514Z,33.77
2017-10-21T06:29:14.063Z,40.70
2017-10-21T06:31:41.722Z,35.23
2017-10-21T06:34:09.220Z,43.47
2017-10-21T06:36:36.968Z,39.90
2017-10-21T06:39:05.014Z,37.55
2017-10-21T06:41:32.573Z,34.47
2017-10-21T06:44:00.056Z,42.80
2017-10-21T06:46:29.078Z,39.27
2017-10-21T06:48:56.560Z,40.13
2017-10-21T06:51:24.161Z,37.33
2017-10-21T06:53:52.580Z,35.40
2017-10-21T06:56:29.117Z,31.60
2017-10-21T06:58:57.263Z,33.83
2017-10-21T07:01:24.902Z,36.70
2017-10-21T07:03:54.532Z,33.87
2017-10-21T07:06:22.028Z,29.17
2017-10-21T07:08:49.633Z,34.40
2017-10-21T07:11:18.546Z,37.60
2017-10-21T07:13:47.040Z,31.70
2017-10-21T07:16:16.650Z,28.83
2017-10-21T07:18:44.239Z,31.90
2017-10-21T07:21:11.994Z,30.17
2017-10-21T07:23:42.416Z,26.33
2017-10-21T07:26:10.945Z,28.27
2017-10-21T07:28:39.911Z,30.27
2017-10-21T07:31:08.228Z,24.90
2017-10-21T07:33:36.158Z,28.10
2017-10-21T07:36:04.195Z,29.23
2017-10-21T07:38:32.033Z,35.77
2017-10-21T07:41:02.113Z,26.03
2017-10-21T07:43:29.694Z,30.27
2017-10-21T07:46:01.829Z,29.83
2017-10-21T07:48:30.634Z,32.63
2017-10-21T07:50:58.908Z,33.00
2017-10-21T07:53:26.675Z,30.40
2017-10-21T07:55:54.346Z,36.37
2017-10-21T07:58:21.800Z,25.35
2017-10-21T08:00:49.520Z,22.10
2017-10-21T08:03:17.143Z,25.80
2017-10-21T08:05:44.888Z,24.40
2017-10-21T08:08:12.776Z,30.62
2017-10-21T08:10:40.607Z,26.10
2017-10-21T08:13:08.180Z,23.10
2017-10-21T08:15:35.719Z,25.13
2017-10-21T08:18:03.264Z,22.47
2017-10-21T08:20:31.028Z,25.23
2017-10-21T08:22:58.865Z,24.73
2017-10-21T08:25:26.852Z,27.48
2017-10-21T08:27:54.356Z,26.73
2017-10-21T08:30:24.125Z,35.65
2017-10-21T08:32:51.868Z,29.00
2017-10-21T08:35:19.502Z,28.40
2017-10-21T08:37:47.210Z,31.10
2017-10-21T08:40:14.765Z,26.98
2017-10-21T08:42:42.711Z,24.13
2017-10-21T08:45:10.194Z,25.08
2017-10-21T08:47:37.836Z,30.87
2017-10-21T08:50:05.355Z,28.60
2017-10-21T08:52:32.882Z,23.97
2017-10-21T08:55:00.450Z,24.83
2017-10-21T08:57:27.954Z,28.03
2017-10-21T08:59:55.588Z,26.37
2017-10-21T09:02:23.828Z,24.70
2017-10-21T09:04:51.451Z,27.63
2017-10-21T09:07:18.987Z,21.90
2017-10-21T09:09:46.515Z,22.37
2017-10-21T09:12:14.006Z,19.80
2017-10-21T09:14:41.458Z,22.17
2017-10-21T09:17:09.058Z,19.20
2017-10-21T09:19:36.555Z,19.93
2017-10-21T09:22:04.076Z,14.23
2017-10-21T09:24:31.680Z,27.47
2017-10-21T09:26:59.236Z,14.90
2017-10-21T09:29:26.761Z,14.13
2017-10-21T09:31:54.268Z,20.93
2017-10-21T09:34:21.856Z,14.27
2017-10-21T09:36:49.374Z,12.67
2017-10-21T09:39:17.103Z,14.93
2017-10-21T09:41:44.633Z,16.12
2017-10-21T09:44:12.195Z,15.63
2017-10-21T09:46:39.726Z,15.57
2017-10-21T09:49:07.201Z,14.48
2017-10-21T09:51:34.792Z,14.70
2017-10-21T09:54:02.299Z,14.33
2017-10-21T09:56:29.842Z,11.37
2017-10-21T09:58:57.393Z,10.30
2017-10-21T10:01:25.709Z,12.10
2017-10-21T10:03:53.514Z,13.90
2017-10-21T10:06:21.017Z,13.40
2017-10-21T10:08:54.694Z,10.00
2017-10-21T10:11:23.271Z,12.70
2017-10-21T10:13:53.828Z,8.80
2017-10-21T10:18:55.478Z,12.40
2017-10-21T10:21:23.125Z,7.63
2017-10-21T10:23:50.806Z,10.50
2017-10-21T10:26:18.280Z,7.07
2017-10-21T10:28:45.821Z,11.27
2017-10-21T10:31:13.428Z,8.97
2017-10-21T10:33:40.987Z,8.43
2017-10-21T10:36:08.619Z,8.17
2017-10-21T10:38:36.218Z,7.93
2017-10-21T10:41:03.720Z,9.73
2017-10-21T10:43:31.656Z,9.43
2017-10-21T10:45:59.163Z,8.53
2017-10-21T10:48:26.660Z,10.53
2017-10-21T10:50:54.294Z,8.83
2017-10-21T10:53:21.881Z,12.13
2017-10-21T10:55:49.350Z,10.40
2017-10-21T10:58:16.951Z,7.33
2017-10-21T11:00:44.434Z,8.70
2017-10-21T11:03:12.058Z,10.63
2017-10-21T11:05:39.619Z,10.93
2017-10-21T11:08:07.124Z,9.60
2017-10-21T11:10:34.803Z,7.87
2017-10-21T11:13:02.455Z,8.50
2017-10-21T11:15:29.946Z,11.03
2017-10-21T11:17:57.520Z,17.70
2017-10-21T11:20:25.427Z,11.50
2017-10-21T11:22:53.018Z,10.43
2017-10-21T11:25:20.452Z,8.60
2017-10-21T11:27:48.024Z,12.27
2017-10-21T11:30:15.514Z,9.63
2017-10-21T11:32:43.071Z,9.90
2017-10-21T11:35:10.705Z,12.83
2017-10-21T11:37:38.160Z,8.60
2017-10-21T11:40:05.645Z,10.90
2017-10-21T11:42:33.233Z,10.77
2017-10-21T11:45:00.904Z,9.40
2017-10-21T11:47:28.421Z,8.48
2017-10-21T11:49:55.988Z,9.60
2017-10-21T11:52:23.820Z,7.43
2017-10-21T11:54:51.476Z,11.27
2017-10-21T11:57:19.010Z,8.20
2017-10-21T11:59:46.587Z,14.30
2017-10-21T12:02:14.126Z,12.20
2017-10-21T12:04:41.652Z,13.67
2017-10-21T12:07:09.116Z,10.00
2017-10-21T12:09:36.686Z,9.13
2017-10-21T12:12:04.390Z,10.30
2017-10-21T12:14:31.827Z,12.20
2017-10-21T12:16:59.372Z,12.97
2017-10-21T12:19:26.928Z,10.13
2017-10-21T12:21:54.415Z,7.67
2017-10-21T12:24:21.956Z,8.70
2017-10-21T12:26:49.449Z,11.27
2017-10-21T12:29:16.871Z,7.53
2017-10-21T12:31:44.375Z,10.77
2017-10-21T12:34:12.403Z,8.82
2017-10-21T12:36:39.864Z,8.20
2017-10-21T12:39:07.380Z,10.10
2017-10-21T12:41:34.919Z,7.83
2017-10-21T12:44:02.415Z,7.43
2017-10-21T12:46:29.913Z,8.47
2017-10-21T12:48:57.596Z,11.00
2017-10-21T12:51:25.068Z,6.73
2017-10-21T12:53:52.487Z,8.97
2017-10-21T12:56:20.114Z,12.32
2017-10-21T12:58:47.671Z,8.10
2017-10-21T13:01:15.198Z,9.50
2017-10-21T13:03:42.735Z,7.77
2017-10-21T13:06:10.188Z,9.53
2017-10-21T13:08:37.632Z,9.53
2017-10-21T13:11:05.174Z,8.20
2017-10-21T13:13:32.771Z,8.43
2017-10-21T13:16:00.301Z,10.13
2017-10-21T13:18:27.778Z,8.70
2017-10-21T13:20:55.523Z,11.43
2017-10-21T13:23:23.022Z,10.23
2017-10-21T13:25:50.593Z,10.60
2017-10-21T13:28:18.075Z,8.67
2017-10-21T13:30:45.607Z,9.60
2017-10-21T13:33:13.093Z,14.50
2017-10-21T13:35:40.568Z,9.87
2017-10-21T13:38:08.146Z,9.07
2017-10-21T13:40:35.655Z,9.87
2017-10-21T13:43:03.218Z,16.50
2017-10-21T13:45:30.681Z,10.83
2017-10-21T13:47:58.136Z,9.73
2017-10-21T13:50:25.581Z,8.33
2017-10-21T13:52:53.087Z,9.20
2017-10-21T13:55:20.647Z,9.53
2017-10-21T13:57:48.368Z,10.00
2017-10-21T14:00:15.810Z,9.73
2017-10-21T14:02:43.328Z,12.93
2017-10-21T14:05:10.900Z,9.80
2017-10-21T14:07:38.376Z,12.13
2017-10-21T14:10:05.933Z,12.20
2017-10-21T14:12:33.443Z,10.37
2017-10-21T14:15:00.930Z,8.73
2017-10-21T14:17:28.751Z,11.33
2017-10-21T14:19:56.278Z,10.90
2017-10-21T14:22:23.703Z,8.57
2017-10-21T14:24:52.425Z,12.30
2017-10-21T14:27:19.870Z,12.80
2017-10-21T14:29:47.329Z,9.30
2017-10-21T14:32:14.793Z,8.45
2017-10-21T14:34:42.269Z,8.60
2017-10-21T14:37:09.857Z,8.93
2017-10-21T14:39:37.444Z,10.77
2017-10-21T14:42:05.795Z,7.22
2017-10-21T14:44:33.324Z,8.30
2017-10-21T14:47:00.912Z,12.27
2017-10-21T14:49:28.381Z,7.43
2017-10-21T14:51:55.899Z,7.90
2017-10-21T14:54:23.679Z,7.15
2017-10-21T14:56:51.204Z,7.30
2017-10-21T14:59:19.428Z,8.73
2017-10-21T15:01:48.229Z,7.70
2017-10-21T15:04:15.758Z,7.20
2017-10-21T15:06:43.210Z,9.20
2017-10-21T15:09:10.781Z,10.03
2017-10-21T15:11:38.243Z,6.53
2017-10-21T15:14:05.897Z,8.53
2017-10-21T15:16:34.610Z,7.10
2017-10-21T15:19:02.146Z,7.23
2017-10-21T15:21:29.635Z,8.20
2017-10-21T15:23:57.776Z,13.70
2017-10-21T15:26:25.324Z,8.60
2017-10-21T15:28:52.808Z,7.23
2017-10-21T15:31:20.431Z,7.93
2017-10-21T15:33:47.921Z,7.77
2017-10-21T15:36:15.357Z,7.97
2017-10-21T15:38:43.325Z,9.43
2017-10-21T15:41:10.921Z,9.07
2017-10-21T15:43:38.495Z,6.50
2017-10-21T15:46:06.845Z,14.53
2017-10-21T15:48:34.489Z,13.10
2017-10-21T15:51:03.410Z,7.70
2017-10-21T15:53:30.942Z,7.73
2017-10-21T15:55:58.666Z,8.20
2017-10-21T15:58:26.353Z,10.40
2017-10-21T16:00:53.932Z,8.30
2017-10-21T16:03:21.606Z,8.40
2017-10-21T16:05:49.226Z,9.63
2017-10-21T16:08:16.806Z,9.15
2017-10-21T16:10:44.388Z,8.33
2017-10-21T16:13:11.913Z,11.43
2017-10-21T16:15:39.565Z,10.50
2017-10-21T16:18:07.632Z,9.43
2017-10-21T16:20:35.092Z,10.30
2017-10-21T16:23:02.684Z,9.70
2017-10-21T16:25:30.214Z,9.27
2017-10-21T16:27:57.739Z,8.63
2017-10-21T16:30:25.291Z,11.43
2017-10-21T16:32:52.821Z,10.70
2017-10-21T16:35:20.343Z,12.87
2017-10-21T16:37:47.834Z,15.20
2017-10-21T16:40:15.374Z,10.88
2017-10-21T16:42:42.844Z,11.37
2017-10-21T16:45:10.514Z,11.70
2017-10-21T16:47:37.981Z,14.60
2017-10-21T16:50:06.051Z,14.70
2017-10-21T16:52:33.536Z,32.80
2017-10-21T16:55:01.077Z,24.60
2017-10-21T16:57:28.583Z,18.00
2017-10-21T16:59:56.170Z,20.97
2017-10-21T17:02:23.612Z,92.62
2017-10-21T17:04:52.231Z,15.00
2017-10-21T17:07:21.361Z,11.30
2017-10-21T17:09:48.855Z,11.17
2017-10-21T17:12:16.426Z,14.90
2017-10-21T17:14:45.616Z,9.47
2017-10-21T17:17:13.062Z,11.43
2017-10-21T17:19:40.564Z,12.52
2017-10-21T17:22:09.294Z,11.17
2017-10-21T17:24:38.608Z,9.27
2017-10-21T17:27:06.171Z,17.50
2017-10-21T17:29:34.557Z,8.77
2017-10-21T17:32:02.165Z,12.57
2017-10-21T17:34:29.741Z,7.43
2017-10-21T17:36:57.216Z,7.90
2017-10-21T17:39:27.856Z,6.73
2017-10-21T17:41:56.063Z,3.93
2017-10-21T17:44:23.561Z,6.90
2017-10-21T17:46:51.051Z,2.47
2017-10-21T17:49:18.531Z,3.13
2017-10-21T17:51:46.636Z,4.03
2017-10-21T17:54:15.048Z,2.80
2017-10-21T17:56:48.398Z,4.30
2017-10-21T17:59:15.916Z,4.90
2017-10-21T18:01:43.466Z,2.40
2017-10-21T18:04:11.032Z,2.10
2017-10-21T18:06:38.590Z,4.43
2017-10-21T18:09:06.067Z,6.40
2017-10-21T18:11:35.653Z,7.53
2017-10-21T18:14:03.140Z,3.10
2017-10-21T18:16:30.724Z,3.53
2017-10-21T18:18:58.224Z,5.95
2017-10-21T18:21:25.757Z,5.30
2017-10-21T18:23:53.273Z,12.80
2017-10-21T18:26:20.896Z,4.78
2017-10-21T18:28:48.521Z,3.78
2017-10-21T18:31:16.146Z,2.77
2017-10-21T18:33:43.630Z,2.30
2017-10-21T18:36:11.581Z,8.68
2017-10-21T18:38:39.291Z,4.82
2017-10-21T18:41:08.693Z,4.23
2017-10-21T18:43:37.481Z,2.17
2017-10-21T18:46:05.450Z,2.03
2017-10-21T18:48:32.990Z,7.33
2017-10-21T18:51:00.738Z,3.40
2017-10-21T18:53:28.250Z,2.97
2017-10-21T18:55:55.748Z,5.83
2017-10-21T18:58:27.517Z,3.03
2017-10-21T19:00:55.226Z,2.60
2017-10-21T19:03:23.002Z,3.20
2017-10-21T19:05:53.381Z,3.77
2017-10-21T19:08:21.187Z,3.43
2017-10-21T19:10:49.382Z,9.90
2017-10-21T19:13:16.917Z,3.83
2017-10-21T19:15:45.587Z,3.70
2017-10-21T19:18:13.197Z,2.70
2017-10-21T19:20:41.125Z,3.67
2017-10-21T19:23:09.331Z,3.20
2017-10-21T19:25:36.857Z,4.93
2017-10-21T19:28:04.470Z,3.12
2017-10-21T19:30:32.028Z,35.83
2017-10-21T19:33:00.124Z,12.63
2017-10-21T19:35:27.636Z,12.23
2017-10-21T19:37:55.128Z,7.50
2017-10-21T19:40:23.585Z,3.22
2017-10-21T19:42:51.110Z,2.57
2017-10-21T19:45:18.662Z,4.60
2017-10-21T19:47:46.261Z,3.93
2017-10-21T19:50:13.865Z,3.75
2017-10-21T19:52:41.414Z,9.30
2017-10-21T19:55:08.953Z,7.73
2017-10-21T19:57:36.599Z,5.97
2017-10-21T20:00:04.131Z,5.50
2017-10-21T20:02:31.659Z,2.87
2017-10-21T20:04:59.170Z,6.87
2017-10-21T20:07:26.713Z,2.80
2017-10-21T20:09:54.168Z,4.40
2017-10-21T20:12:21.796Z,3.10
2017-10-21T20:14:49.310Z,5.23
2017-10-21T20:17:16.866Z,5.10
2017-10-21T20:19:44.538Z,5.17
2017-10-21T20:22:12.498Z,2.97
2017-10-21T20:24:40.080Z,2.10
2017-10-21T20:27:07.653Z,6.40
2017-10-21T20:29:35.249Z,3.70
2017-10-21T20:32:02.809Z,4.57
2017-10-21T20:34:31.391Z,1.40
2017-10-21T20:36:58.856Z,4.20
2017-10-21T20:39:26.802Z,4.17
2017-10-21T20:41:54.584Z,8.03
2017-10-21T20:44:22.119Z,3.60
2017-10-21T20:46:49.683Z,3.13
2017-10-21T20:49:17.247Z,5.40
2017-10-21T20:51:44.786Z,5.00
2017-10-21T20:54:12.422Z,4.43
2017-10-21T20:56:39.944Z,3.97
2017-10-21T20:59:07.516Z,7.67
2017-10-21T21:01:35.035Z,6.10
2017-10-21T21:04:02.512Z,7.93
2017-10-21T21:06:30.038Z,5.30
2017-10-21T21:08:57.534Z,6.30
2017-10-21T21:11:25.033Z,6.77
2017-10-21T21:13:52.596Z,7.60
2017-10-21T21:16:20.048Z,4.30
2017-10-21T21:18:47.879Z,4.93
2017-10-21T21:21:15.398Z,5.03
2017-10-21T21:23:42.896Z,4.10
2017-10-21T21:26:10.426Z,5.40
2017-10-21T21:28:37.914Z,3.50
2017-10-21T21:31:05.364Z,5.83
2017-10-21T21:33:33.119Z,8.67
2017-10-21T21:36:00.615Z,6.60
2017-10-21T21:38:28.077Z,5.87
2017-10-21T21:40:55.591Z,2.97
2017-10-21T21:43:23.045Z,6.80
2017-10-21T21:45:50.609Z,2.77
2017-10-21T21:48:18.167Z,7.07
2017-10-21T21:50:45.616Z,3.93
2017-10-21T21:53:14.098Z,8.30
2017-10-21T21:55:41.637Z,5.73
2017-10-21T21:58:09.206Z,4.70
2017-10-21T22:00:36.622Z,7.50
2017-10-21T22:03:04.131Z,4.30
2017-10-21T22:05:31.568Z,6.43
2017-10-21T22:07:59.020Z,4.77
2017-10-21T22:10:26.601Z,6.87
2017-10-21T22:12:54.100Z,6.27
2017-10-21T22:15:21.548Z,11.93
2017-10-21T22:17:49.200Z,6.80
2017-10-21T22:20:16.693Z,3.77
2017-10-21T22:22:44.723Z,4.00
2017-10-21T22:25:12.203Z,3.83
2017-10-21T22:27:39.651Z,3.67
2017-10-21T22:30:07.127Z,4.73
2017-10-21T22:32:34.630Z,12.32
2017-10-21T22:35:02.062Z,3.80
2017-10-21T22:37:29.557Z,7.80
2017-10-21T22:39:57.093Z,5.57
2017-10-21T22:42:24.495Z,6.97
2017-10-21T22:44:51.941Z,4.30
2017-10-21T22:47:19.869Z,5.20
2017-10-21T22:49:47.315Z,3.63
2017-10-21T22:52:14.751Z,3.73
2017-10-21T22:54:42.346Z,5.30
2017-10-21T22:57:09.835Z,4.83
2017-10-21T22:59:37.320Z,5.03
2017-10-21T23:02:05.369Z,7.23
2017-10-21T23:04:32.818Z,6.87
2017-10-21T23:07:00.326Z,3.50
2017-10-21T23:09:27.806Z,7.70
2017-10-21T23:11:55.351Z,3.53
2017-10-21T23:14:22.928Z,6.65
2017-10-21T23:16:50.405Z,9.43
2017-10-21T23:19:17.919Z,3.70
2017-10-21T23:21:45.369Z,10.63
2017-10-21T23:24:12.937Z,8.63
2017-10-21T23:26:40.457Z,6.00
2017-10-21T23:29:07.944Z,5.10
2017-10-21T23:31:35.978Z,5.60
2017-10-21T23:34:03.467Z,4.28
2017-10-21T23:36:30.959Z,4.00
2017-10-21T23:38:58.464Z,4.53
2017-10-21T23:41:25.970Z,9.37
2017-10-21T23:43:53.456Z,6.47
2017-10-21T23:46:20.950Z,3.92
2017-10-21T23:48:48.410Z,6.80
2017-10-21T23:51:15.869Z,4.63
2017-10-21T23:53:43.416Z,9.03
2017-10-21T23:56:10.985Z,3.10
2017-10-21T23:58:38.433Z,4.20
